sensor_id;sensor_type;location;lat;lon;timestamp;temperature;humidity
64937;SHT30;51452;47.698;19.050;2022-08-06T00:02:05;26.31;45.89
64937;SHT30;51452;47.698;19.050;2022-08-06T00:04:30;26.28;46.06
64937;SHT30;51452;47.698;19.050;2022-08-06T00:06:56;26.25;46.00
64937;SHT30;51452;47.698;19.050;2022-08-06T00:09:21;26.24;46.17
64937;SHT30;51452;47.698;19.050;2022-08-06T00:11:46;26.17;46.78
64937;SHT30;51452;47.698;19.050;2022-08-06T00:14:12;26.17;46.74
64937;SHT30;51452;47.698;19.050;2022-08-06T00:16:38;26.11;46.51
64937;SHT30;51452;47.698;19.050;2022-08-06T00:19:03;26.09;46.32
64937;SHT30;51452;47.698;19.050;2022-08-06T00:21:29;26.05;46.68
64937;SHT30;51452;47.698;19.050;2022-08-06T00:23:54;26.00;46.06
64937;SHT30;51452;47.698;19.050;2022-08-06T00:26:19;25.93;46.18
64937;SHT30;51452;47.698;19.050;2022-08-06T00:28:45;25.93;46.83
64937;SHT30;51452;47.698;19.050;2022-08-06T00:31:10;25.87;46.90
64937;SHT30;51452;47.698;19.050;2022-08-06T00:33:37;25.84;47.61
64937;SHT30;51452;47.698;19.050;2022-08-06T00:36:03;25.81;47.43
64937;SHT30;51452;47.698;19.050;2022-08-06T00:38:28;25.77;47.06
64937;SHT30;51452;47.698;19.050;2022-08-06T00:40:54;25.69;47.61
64937;SHT30;51452;47.698;19.050;2022-08-06T00:43:20;25.69;47.31
64937;SHT30;51452;47.698;19.050;2022-08-06T00:45:45;25.63;46.71
64937;SHT30;51452;47.698;19.050;2022-08-06T00:48:12;25.59;47.33
64937;SHT30;51452;47.698;19.050;2022-08-06T00:50:37;25.57;47.32
64937;SHT30;51452;47.698;19.050;2022-08-06T00:53:03;25.59;47.05
64937;SHT30;51452;47.698;19.050;2022-08-06T00:55:29;25.62;46.79
64937;SHT30;51452;47.698;19.050;2022-08-06T00:57:55;25.56;47.66
64937;SHT30;51452;47.698;19.050;2022-08-06T01:00:20;25.50;47.33
64937;SHT30;51452;47.698;19.050;2022-08-06T01:02:46;25.45;47.07
64937;SHT30;51452;47.698;19.050;2022-08-06T01:05:11;25.40;47.06
64937;SHT30;51452;47.698;19.050;2022-08-06T01:07:36;25.43;47.54
64937;SHT30;51452;47.698;19.050;2022-08-06T01:10:03;25.33;48.65
64937;SHT30;51452;47.698;19.050;2022-08-06T01:12:28;25.32;48.68
64937;SHT30;51452;47.698;19.050;2022-08-06T01:14:54;25.25;47.41
64937;SHT30;51452;47.698;19.050;2022-08-06T01:17:24;25.16;47.70
64937;SHT30;51452;47.698;19.050;2022-08-06T01:19:58;25.12;47.57
64937;SHT30;51452;47.698;19.050;2022-08-06T01:22:42;25.08;47.41
64937;SHT30;51452;47.698;19.050;2022-08-06T01:28:10;25.01;47.66
64937;SHT30;51452;47.698;19.050;2022-08-06T01:30:43;25.02;48.35
64937;SHT30;51452;47.698;19.050;2022-08-06T01:33:14;24.98;48.00
64937;SHT30;51452;47.698;19.050;2022-08-06T01:35:44;24.99;48.08
64937;SHT30;51452;47.698;19.050;2022-08-06T01:41:25;24.94;48.95
64937;SHT30;51452;47.698;19.050;2022-08-06T01:44:13;24.88;49.38
64937;SHT30;51452;47.698;19.050;2022-08-06T01:46:42;24.88;49.50
64937;SHT30;51452;47.698;19.050;2022-08-06T01:49:10;24.86;50.03
64937;SHT30;51452;47.698;19.050;2022-08-06T01:51:37;24.79;50.63
64937;SHT30;51452;47.698;19.050;2022-08-06T01:54:04;24.79;49.13
64937;SHT30;51452;47.698;19.050;2022-08-06T01:56:34;24.76;47.84
64937;SHT30;51452;47.698;19.050;2022-08-06T01:59:02;24.74;47.95
64937;SHT30;51452;47.698;19.050;2022-08-06T02:01:29;24.76;49.00
64937;SHT30;51452;47.698;19.050;2022-08-06T02:03:56;24.68;49.91
64937;SHT30;51452;47.698;19.050;2022-08-06T02:06:28;24.60;50.66
64937;SHT30;51452;47.698;19.050;2022-08-06T02:08:54;24.58;50.37
64937;SHT30;51452;47.698;19.050;2022-08-06T02:11:20;24.60;51.67
64937;SHT30;51452;47.698;19.050;2022-08-06T02:13:46;24.57;51.88
64937;SHT30;51452;47.698;19.050;2022-08-06T02:16:14;24.53;52.20
64937;SHT30;51452;47.698;19.050;2022-08-06T02:18:42;24.43;52.72
64937;SHT30;51452;47.698;19.050;2022-08-06T02:21:18;24.38;52.87
64937;SHT30;51452;47.698;19.050;2022-08-06T02:23:45;24.34;53.47
64937;SHT30;51452;47.698;19.050;2022-08-06T02:26:13;24.30;53.46
64937;SHT30;51452;47.698;19.050;2022-08-06T02:28:41;24.27;53.63
64937;SHT30;51452;47.698;19.050;2022-08-06T02:31:07;24.24;53.62
64937;SHT30;51452;47.698;19.050;2022-08-06T02:33:33;24.18;53.85
64937;SHT30;51452;47.698;19.050;2022-08-06T02:36:29;24.06;54.56
64937;SHT30;51452;47.698;19.050;2022-08-06T02:39:06;24.05;54.67
64937;SHT30;51452;47.698;19.050;2022-08-06T02:41:43;23.97;54.66
64937;SHT30;51452;47.698;19.050;2022-08-06T02:47:24;23.87;53.79
64937;SHT30;51452;47.698;19.050;2022-08-06T02:49:54;23.90;54.28
64937;SHT30;51452;47.698;19.050;2022-08-06T02:52:30;23.85;54.95
64937;SHT30;51452;47.698;19.050;2022-08-06T02:55:07;23.83;55.33
64937;SHT30;51452;47.698;19.050;2022-08-06T02:57:41;23.83;55.48
64937;SHT30;51452;47.698;19.050;2022-08-06T03:00:08;23.82;55.32
64937;SHT30;51452;47.698;19.050;2022-08-06T03:02:36;23.82;54.98
64937;SHT30;51452;47.698;19.050;2022-08-06T03:05:05;23.79;54.84
64937;SHT30;51452;47.698;19.050;2022-08-06T03:07:32;23.77;54.92
64937;SHT30;51452;47.698;19.050;2022-08-06T03:10:00;23.76;54.73
64937;SHT30;51452;47.698;19.050;2022-08-06T03:12:27;23.77;54.94
64937;SHT30;51452;47.698;19.050;2022-08-06T03:14:53;23.79;54.41
64937;SHT30;51452;47.698;19.050;2022-08-06T03:17:20;23.76;55.08
64937;SHT30;51452;47.698;19.050;2022-08-06T03:19:47;23.82;54.73
64937;SHT30;51452;47.698;19.050;2022-08-06T03:22:14;23.83;52.87
64937;SHT30;51452;47.698;19.050;2022-08-06T03:24:42;23.90;53.49
64937;SHT30;51452;47.698;19.050;2022-08-06T03:27:09;23.87;53.60
64937;SHT30;51452;47.698;19.050;2022-08-06T03:29:37;23.87;54.46
64937;SHT30;51452;47.698;19.050;2022-08-06T03:32:04;23.87;53.93
64937;SHT30;51452;47.698;19.050;2022-08-06T03:34:31;23.85;53.05
64937;SHT30;51452;47.698;19.050;2022-08-06T03:36:58;23.93;52.15
64937;SHT30;51452;47.698;19.050;2022-08-06T03:39:25;23.96;52.56
64937;SHT30;51452;47.698;19.050;2022-08-06T03:41:52;23.96;53.51
64937;SHT30;51452;47.698;19.050;2022-08-06T03:44:18;23.95;53.45
64937;SHT30;51452;47.698;19.050;2022-08-06T03:46:57;23.93;53.94
64937;SHT30;51452;47.698;19.050;2022-08-06T03:49:27;23.95;53.85
64937;SHT30;51452;47.698;19.050;2022-08-06T03:51:54;23.92;54.02
64937;SHT30;51452;47.698;19.050;2022-08-06T03:54:25;23.96;52.86
64937;SHT30;51452;47.698;19.050;2022-08-06T03:56:52;23.99;52.76
64937;SHT30;51452;47.698;19.050;2022-08-06T03:59:20;23.97;53.13
64937;SHT30;51452;47.698;19.050;2022-08-06T04:01:47;24.00;53.16
64937;SHT30;51452;47.698;19.050;2022-08-06T04:04:14;24.02;53.09
64937;SHT30;51452;47.698;19.050;2022-08-06T04:06:42;23.99;53.98
64937;SHT30;51452;47.698;19.050;2022-08-06T04:09:08;24.00;53.69
64937;SHT30;51452;47.698;19.050;2022-08-06T04:11:35;24.02;53.33
64937;SHT30;51452;47.698;19.050;2022-08-06T04:14:01;23.99;53.47
64937;SHT30;51452;47.698;19.050;2022-08-06T04:16:27;23.99;53.07
64937;SHT30;51452;47.698;19.050;2022-08-06T04:18:53;24.02;53.63
64937;SHT30;51452;47.698;19.050;2022-08-06T04:21:23;24.02;54.17
64937;SHT30;51452;47.698;19.050;2022-08-06T04:23:52;24.06;53.88
64937;SHT30;51452;47.698;19.050;2022-08-06T04:26:21;24.07;54.05
64937;SHT30;51452;47.698;19.050;2022-08-06T04:28:53;24.14;54.24
64937;SHT30;51452;47.698;19.050;2022-08-06T04:31:21;24.16;54.27
64937;SHT30;51452;47.698;19.050;2022-08-06T04:33:47;24.24;53.90
64937;SHT30;51452;47.698;19.050;2022-08-06T04:36:14;24.27;54.35
64937;SHT30;51452;47.698;19.050;2022-08-06T04:38:40;24.31;54.19
64937;SHT30;51452;47.698;19.050;2022-08-06T04:41:06;24.37;54.65
64937;SHT30;51452;47.698;19.050;2022-08-06T04:43:32;24.44;55.70
64937;SHT30;51452;47.698;19.050;2022-08-06T04:45:58;24.47;55.74
64937;SHT30;51452;47.698;19.050;2022-08-06T04:48:25;24.54;54.65
64937;SHT30;51452;47.698;19.050;2022-08-06T04:50:51;24.58;54.20
64937;SHT30;51452;47.698;19.050;2022-08-06T04:53:18;24.67;54.49
64937;SHT30;51452;47.698;19.050;2022-08-06T04:55:45;24.74;54.97
64937;SHT30;51452;47.698;19.050;2022-08-06T04:58:12;24.78;55.81
64937;SHT30;51452;47.698;19.050;2022-08-06T05:00:46;24.82;55.78
64937;SHT30;51452;47.698;19.050;2022-08-06T05:03:12;24.91;55.67
64937;SHT30;51452;47.698;19.050;2022-08-06T05:05:42;25.01;56.86
64937;SHT30;51452;47.698;19.050;2022-08-06T05:08:08;24.98;56.36
64937;SHT30;51452;47.698;19.050;2022-08-06T05:10:53;25.01;56.85
64937;SHT30;51452;47.698;19.050;2022-08-06T05:13:20;25.06;57.01
64937;SHT30;51452;47.698;19.050;2022-08-06T05:15:51;25.14;56.98
64937;SHT30;51452;47.698;19.050;2022-08-06T05:18:33;25.20;56.60
64937;SHT30;51452;47.698;19.050;2022-08-06T05:21:00;25.25;56.56
64937;SHT30;51452;47.698;19.050;2022-08-06T05:23:34;25.32;56.61
64937;SHT30;51452;47.698;19.050;2022-08-06T05:26:00;25.40;56.31
64937;SHT30;51452;47.698;19.050;2022-08-06T05:28:26;25.46;55.01
64937;SHT30;51452;47.698;19.050;2022-08-06T05:30:52;25.59;57.13
64937;SHT30;51452;47.698;19.050;2022-08-06T05:33:30;25.67;57.70
64937;SHT30;51452;47.698;19.050;2022-08-06T05:36:03;25.76;58.06
64937;SHT30;51452;47.698;19.050;2022-08-06T05:38:30;25.77;56.77
64937;SHT30;51452;47.698;19.050;2022-08-06T05:40:56;25.84;57.88
64937;SHT30;51452;47.698;19.050;2022-08-06T05:43:22;25.85;57.02
64937;SHT30;51452;47.698;19.050;2022-08-06T05:45:50;25.93;57.60
64937;SHT30;51452;47.698;19.050;2022-08-06T05:48:18;26.04;56.90
64937;SHT30;51452;47.698;19.050;2022-08-06T05:50:48;26.13;54.91
64937;SHT30;51452;47.698;19.050;2022-08-06T05:53:36;26.15;54.14
64937;SHT30;51452;47.698;19.050;2022-08-06T05:56:10;26.28;52.10
64937;SHT30;51452;47.698;19.050;2022-08-06T05:58:59;26.32;53.45
64937;SHT30;51452;47.698;19.050;2022-08-06T06:01:25;26.49;53.24
64937;SHT30;51452;47.698;19.050;2022-08-06T06:03:52;26.59;53.02
64937;SHT30;51452;47.698;19.050;2022-08-06T06:06:22;26.63;52.04
64937;SHT30;51452;47.698;19.050;2022-08-06T06:08:48;26.72;51.37
64937;SHT30;51452;47.698;19.050;2022-08-06T06:11:14;26.79;50.74
64937;SHT30;51452;47.698;19.050;2022-08-06T06:13:41;26.86;50.66
64937;SHT30;51452;47.698;19.050;2022-08-06T06:24:15;27.11;43.25
64937;SHT30;51452;47.698;19.050;2022-08-06T06:29:38;27.30;42.90
64937;SHT30;51452;47.698;19.050;2022-08-06T06:32:19;27.27;43.45
64937;SHT30;51452;47.698;19.050;2022-08-06T06:34:54;27.41;41.41
64937;SHT30;51452;47.698;19.050;2022-08-06T06:40:53;27.65;42.10
64937;SHT30;51452;47.698;19.050;2022-08-06T06:43:32;27.78;41.20
64937;SHT30;51452;47.698;19.050;2022-08-06T06:48:45;27.92;40.98
64937;SHT30;51452;47.698;19.050;2022-08-06T06:51:36;27.94;41.84
64937;SHT30;51452;47.698;19.050;2022-08-06T06:54:05;28.08;41.51
64937;SHT30;51452;47.698;19.050;2022-08-06T06:56:43;28.08;42.19
64937;SHT30;51452;47.698;19.050;2022-08-06T06:59:24;28.17;40.81
64937;SHT30;51452;47.698;19.050;2022-08-06T07:01:54;28.17;42.75
64937;SHT30;51452;47.698;19.050;2022-08-06T07:04:22;28.27;40.74
64937;SHT30;51452;47.698;19.050;2022-08-06T07:06:48;28.32;39.75
64937;SHT30;51452;47.698;19.050;2022-08-06T07:09:19;28.39;40.73
64937;SHT30;51452;47.698;19.050;2022-08-06T07:11:47;28.47;40.98
64937;SHT30;51452;47.698;19.050;2022-08-06T07:14:13;28.50;40.90
64937;SHT30;51452;47.698;19.050;2022-08-06T07:16:40;28.54;40.79
64937;SHT30;51452;47.698;19.050;2022-08-06T07:19:07;28.67;40.19
64937;SHT30;51452;47.698;19.050;2022-08-06T07:21:34;28.73;40.31
64937;SHT30;51452;47.698;19.050;2022-08-06T07:24:00;28.64;42.01
64937;SHT30;51452;47.698;19.050;2022-08-06T07:26:27;28.80;39.95
64937;SHT30;51452;47.698;19.050;2022-08-06T07:28:54;28.94;41.12
64937;SHT30;51452;47.698;19.050;2022-08-06T07:31:23;28.97;39.90
64937;SHT30;51452;47.698;19.050;2022-08-06T07:33:50;28.95;39.69
64937;SHT30;51452;47.698;19.050;2022-08-06T07:36:18;29.00;38.51
64937;SHT30;51452;47.698;19.050;2022-08-06T07:38:46;28.98;38.88
64937;SHT30;51452;47.698;19.050;2022-08-06T07:41:13;29.11;38.68
64937;SHT30;51452;47.698;19.050;2022-08-06T07:43:54;29.14;38.47
64937;SHT30;51452;47.698;19.050;2022-08-06T07:46:34;29.16;38.74
64937;SHT30;51452;47.698;19.050;2022-08-06T07:49:04;29.22;38.51
64937;SHT30;51452;47.698;19.050;2022-08-06T07:51:34;29.16;37.79
64937;SHT30;51452;47.698;19.050;2022-08-06T07:54:06;29.39;40.42
64937;SHT30;51452;47.698;19.050;2022-08-06T07:56:34;29.29;36.37
64937;SHT30;51452;47.698;19.050;2022-08-06T07:59:00;29.48;37.47
64937;SHT30;51452;47.698;19.050;2022-08-06T08:01:27;29.67;39.65
64937;SHT30;51452;47.698;19.050;2022-08-06T08:03:53;29.70;40.47
64937;SHT30;51452;47.698;19.050;2022-08-06T08:06:38;29.66;36.89
64937;SHT30;51452;47.698;19.050;2022-08-06T08:09:31;29.72;36.61
64937;SHT30;51452;47.698;19.050;2022-08-06T08:11:57;29.93;36.48
64937;SHT30;51452;47.698;19.050;2022-08-06T08:14:23;29.97;37.82
64937;SHT30;51452;47.698;19.050;2022-08-06T08:16:50;29.97;36.51
64937;SHT30;51452;47.698;19.050;2022-08-06T08:19:27;30.12;36.45
64937;SHT30;51452;47.698;19.050;2022-08-06T08:21:57;29.97;38.28
64937;SHT30;51452;47.698;19.050;2022-08-06T08:24:24;30.04;36.94
64937;SHT30;51452;47.698;19.050;2022-08-06T08:26:49;30.18;37.59
64937;SHT30;51452;47.698;19.050;2022-08-06T08:29:15;30.16;36.24
64937;SHT30;51452;47.698;19.050;2022-08-06T08:31:40;30.37;37.22
64937;SHT30;51452;47.698;19.050;2022-08-06T08:34:06;30.43;36.57
64937;SHT30;51452;47.698;19.050;2022-08-06T08:36:32;30.40;38.25
64937;SHT30;51452;47.698;19.050;2022-08-06T08:38:57;30.38;36.91
64937;SHT30;51452;47.698;19.050;2022-08-06T08:41:26;30.51;37.84
64937;SHT30;51452;47.698;19.050;2022-08-06T08:43:57;30.44;38.20
64937;SHT30;51452;47.698;19.050;2022-08-06T08:46:26;30.44;37.42
64937;SHT30;51452;47.698;19.050;2022-08-06T08:48:53;30.60;37.51
64937;SHT30;51452;47.698;19.050;2022-08-06T08:51:20;30.60;38.46
64937;SHT30;51452;47.698;19.050;2022-08-06T08:53:53;30.64;37.13
64937;SHT30;51452;47.698;19.050;2022-08-06T08:56:19;30.86;37.66
64937;SHT30;51452;47.698;19.050;2022-08-06T08:58:45;30.92;37.89
64937;SHT30;51452;47.698;19.050;2022-08-06T09:01:12;31.02;36.80
64937;SHT30;51452;47.698;19.050;2022-08-06T09:03:39;31.00;35.44
64937;SHT30;51452;47.698;19.050;2022-08-06T09:06:05;30.99;37.38
64937;SHT30;51452;47.698;19.050;2022-08-06T09:08:31;31.03;36.38
64937;SHT30;51452;47.698;19.050;2022-08-06T09:10:58;31.11;35.27
64937;SHT30;51452;47.698;19.050;2022-08-06T09:13:27;31.19;36.03
64937;SHT30;51452;47.698;19.050;2022-08-06T09:15:53;31.30;36.24
64937;SHT30;51452;47.698;19.050;2022-08-06T09:18:20;31.21;34.82
64937;SHT30;51452;47.698;19.050;2022-08-06T09:20:46;31.40;34.94
64937;SHT30;51452;47.698;19.050;2022-08-06T09:23:12;31.49;35.63
64937;SHT30;51452;47.698;19.050;2022-08-06T09:25:43;31.56;36.21
64937;SHT30;51452;47.698;19.050;2022-08-06T09:33:35;31.46;35.61
64937;SHT30;51452;47.698;19.050;2022-08-06T09:38:32;31.57;38.58
64937;SHT30;51452;47.698;19.050;2022-08-06T09:41:10;31.66;36.01
64937;SHT30;51452;47.698;19.050;2022-08-06T09:43:37;31.67;35.87
64937;SHT30;51452;47.698;19.050;2022-08-06T09:46:03;31.95;35.97
64937;SHT30;51452;47.698;19.050;2022-08-06T09:48:28;31.93;34.52
64937;SHT30;51452;47.698;19.050;2022-08-06T09:50:54;32.05;36.00
64937;SHT30;51452;47.698;19.050;2022-08-06T09:53:20;32.07;36.31
64937;SHT30;51452;47.698;19.050;2022-08-06T09:55:47;32.07;34.52
64937;SHT30;51452;47.698;19.050;2022-08-06T09:58:13;32.10;35.82
64937;SHT30;51452;47.698;19.050;2022-08-06T10:00:39;32.14;35.58
64937;SHT30;51452;47.698;19.050;2022-08-06T10:03:07;32.17;36.17
64937;SHT30;51452;47.698;19.050;2022-08-06T10:05:33;32.28;35.60
64937;SHT30;51452;47.698;19.050;2022-08-06T10:08:08;32.29;34.97
64937;SHT30;51452;47.698;19.050;2022-08-06T10:10:47;32.36;34.73
64937;SHT30;51452;47.698;19.050;2022-08-06T10:13:24;32.27;34.10
64937;SHT30;51452;47.698;19.050;2022-08-06T10:15:52;32.41;35.55
64937;SHT30;51452;47.698;19.050;2022-08-06T10:21:07;32.45;34.66
64937;SHT30;51452;47.698;19.050;2022-08-06T10:23:35;32.41;34.20
64937;SHT30;51452;47.698;19.050;2022-08-06T10:26:05;32.34;34.63
64937;SHT30;51452;47.698;19.050;2022-08-06T10:28:33;32.52;35.98
64937;SHT30;51452;47.698;19.050;2022-08-06T10:31:02;32.62;34.75
64937;SHT30;51452;47.698;19.050;2022-08-06T10:33:39;32.52;36.51
64937;SHT30;51452;47.698;19.050;2022-08-06T10:36:10;32.56;35.37
64937;SHT30;51452;47.698;19.050;2022-08-06T10:38:38;32.62;35.01
64937;SHT30;51452;47.698;19.050;2022-08-06T10:41:11;32.76;35.57
64937;SHT30;51452;47.698;19.050;2022-08-06T10:43:37;32.78;36.85
64937;SHT30;51452;47.698;19.050;2022-08-06T10:46:05;32.75;35.20
64937;SHT30;51452;47.698;19.050;2022-08-06T10:48:31;32.79;33.83
64937;SHT30;51452;47.698;19.050;2022-08-06T10:50:56;32.87;35.63
64937;SHT30;51452;47.698;19.050;2022-08-06T10:53:22;33.10;36.42
64937;SHT30;51452;47.698;19.050;2022-08-06T10:55:48;33.07;35.13
64937;SHT30;51452;47.698;19.050;2022-08-06T10:58:14;33.29;34.47
64937;SHT30;51452;47.698;19.050;2022-08-06T11:00:41;33.41;34.14
64937;SHT30;51452;47.698;19.050;2022-08-06T11:14:46;33.57;33.67
64937;SHT30;51452;47.698;19.050;2022-08-06T11:17:12;33.51;34.57
64937;SHT30;51452;47.698;19.050;2022-08-06T11:22:08;33.49;35.40
64937;SHT30;51452;47.698;19.050;2022-08-06T11:24:49;33.51;34.39
64937;SHT30;51452;47.698;19.050;2022-08-06T11:27:47;33.53;34.51
64937;SHT30;51452;47.698;19.050;2022-08-06T11:30:13;33.71;35.12
64937;SHT30;51452;47.698;19.050;2022-08-06T11:38:06;33.92;34.53
64937;SHT30;51452;47.698;19.050;2022-08-06T11:46:29;34.00;34.80
64937;SHT30;51452;47.698;19.050;2022-08-06T11:54:33;33.71;35.11
64937;SHT30;51452;47.698;19.050;2022-08-06T11:59:38;33.84;36.93
64937;SHT30;51452;47.698;19.050;2022-08-06T12:02:08;33.77;36.12
64937;SHT30;51452;47.698;19.050;2022-08-06T12:07:26;34.11;35.78
64937;SHT30;51452;47.698;19.050;2022-08-06T12:14:55;34.19;36.75
64937;SHT30;51452;47.698;19.050;2022-08-06T12:17:23;34.28;36.22
64937;SHT30;51452;47.698;19.050;2022-08-06T12:19:51;34.12;36.32
64937;SHT30;51452;47.698;19.050;2022-08-06T12:22:19;34.09;36.66
64937;SHT30;51452;47.698;19.050;2022-08-06T12:24:48;34.16;37.27
64937;SHT30;51452;47.698;19.050;2022-08-06T12:27:15;34.11;36.47
64937;SHT30;51452;47.698;19.050;2022-08-06T12:29:41;34.05;37.00
64937;SHT30;51452;47.698;19.050;2022-08-06T12:32:20;33.81;37.15
64937;SHT30;51452;47.698;19.050;2022-08-06T12:34:47;33.72;37.22
64937;SHT30;51452;47.698;19.050;2022-08-06T12:37:12;33.61;37.35
64937;SHT30;51452;47.698;19.050;2022-08-06T12:39:39;33.46;37.64
64937;SHT30;51452;47.698;19.050;2022-08-06T12:42:24;33.62;38.43
64937;SHT30;51452;47.698;19.050;2022-08-06T12:44:50;33.57;38.20
64937;SHT30;51452;47.698;19.050;2022-08-06T12:47:16;33.40;37.99
64937;SHT30;51452;47.698;19.050;2022-08-06T12:49:41;33.46;38.02
64937;SHT30;51452;47.698;19.050;2022-08-06T12:52:18;33.43;37.82
64937;SHT30;51452;47.698;19.050;2022-08-06T12:54:45;33.34;37.89
64937;SHT30;51452;47.698;19.050;2022-08-06T12:57:25;33.39;38.10
64937;SHT30;51452;47.698;19.050;2022-08-06T12:59:52;33.31;38.12
64937;SHT30;51452;47.698;19.050;2022-08-06T13:02:19;33.47;38.74
64937;SHT30;51452;47.698;19.050;2022-08-06T13:04:48;33.41;38.26
64937;SHT30;51452;47.698;19.050;2022-08-06T13:07:15;33.23;38.15
64937;SHT30;51452;47.698;19.050;2022-08-06T13:09:43;33.17;38.00
64937;SHT30;51452;47.698;19.050;2022-08-06T13:14:51;33.02;38.60
64937;SHT30;51452;47.698;19.050;2022-08-06T13:17:18;33.04;38.95
64937;SHT30;51452;47.698;19.050;2022-08-06T13:22:17;32.98;39.20
64937;SHT30;51452;47.698;19.050;2022-08-06T13:24:42;33.04;38.81
64937;SHT30;51452;47.698;19.050;2022-08-06T13:27:08;33.06;39.86
64937;SHT30;51452;47.698;19.050;2022-08-06T13:29:33;33.09;39.41
64937;SHT30;51452;47.698;19.050;2022-08-06T13:32:03;33.14;38.88
64937;SHT30;51452;47.698;19.050;2022-08-06T13:34:44;33.29;39.29
64937;SHT30;51452;47.698;19.050;2022-08-06T13:37:10;33.41;38.06
64937;SHT30;51452;47.698;19.050;2022-08-06T13:39:35;33.62;39.03
64937;SHT30;51452;47.698;19.050;2022-08-06T13:42:10;33.64;38.25
64937;SHT30;51452;47.698;19.050;2022-08-06T13:44:41;33.68;37.90
64937;SHT30;51452;47.698;19.050;2022-08-06T13:47:07;33.92;37.69
64937;SHT30;51452;47.698;19.050;2022-08-06T13:49:34;33.81;37.69
64937;SHT30;51452;47.698;19.050;2022-08-06T13:52:01;33.80;38.78
64937;SHT30;51452;47.698;19.050;2022-08-06T13:54:27;33.78;38.18
64937;SHT30;51452;47.698;19.050;2022-08-06T13:56:54;33.55;38.60
64937;SHT30;51452;47.698;19.050;2022-08-06T13:59:21;33.43;37.93
64937;SHT30;51452;47.698;19.050;2022-08-06T14:01:48;33.40;37.99
64937;SHT30;51452;47.698;19.050;2022-08-06T14:04:14;33.49;38.01
64937;SHT30;51452;47.698;19.050;2022-08-06T14:06:41;33.41;38.64
64937;SHT30;51452;47.698;19.050;2022-08-06T14:09:06;33.20;38.09
64937;SHT30;51452;47.698;19.050;2022-08-06T14:11:32;32.99;39.05
64937;SHT30;51452;47.698;19.050;2022-08-06T14:13:57;32.92;39.15
64937;SHT30;51452;47.698;19.050;2022-08-06T14:16:23;32.82;39.00
64937;SHT30;51452;47.698;19.050;2022-08-06T14:18:48;32.80;39.41
64937;SHT30;51452;47.698;19.050;2022-08-06T14:21:13;32.66;39.68
64937;SHT30;51452;47.698;19.050;2022-08-06T14:23:39;32.62;40.36
64937;SHT30;51452;47.698;19.050;2022-08-06T14:26:04;32.75;40.03
64937;SHT30;51452;47.698;19.050;2022-08-06T14:28:35;32.87;39.89
64937;SHT30;51452;47.698;19.050;2022-08-06T14:31:01;33.03;39.41
64937;SHT30;51452;47.698;19.050;2022-08-06T14:33:26;33.07;39.65
64937;SHT30;51452;47.698;19.050;2022-08-06T14:35:52;33.10;40.11
64937;SHT30;51452;47.698;19.050;2022-08-06T14:38:20;33.12;39.52
64937;SHT30;51452;47.698;19.050;2022-08-06T14:40:46;32.96;39.73
64937;SHT30;51452;47.698;19.050;2022-08-06T14:43:30;32.75;39.59
64937;SHT30;51452;47.698;19.050;2022-08-06T14:46:14;32.61;40.19
64937;SHT30;51452;47.698;19.050;2022-08-06T14:48:40;32.51;40.44
64937;SHT30;51452;47.698;19.050;2022-08-06T14:51:05;32.18;41.51
64937;SHT30;51452;47.698;19.050;2022-08-06T14:53:30;32.10;41.79
64937;SHT30;51452;47.698;19.050;2022-08-06T14:55:56;31.85;41.97
64937;SHT30;51452;47.698;19.050;2022-08-06T14:58:21;31.76;42.20
64937;SHT30;51452;47.698;19.050;2022-08-06T15:00:47;31.57;43.46
64937;SHT30;51452;47.698;19.050;2022-08-06T15:03:15;31.36;43.17
64937;SHT30;51452;47.698;19.050;2022-08-06T15:05:45;31.30;43.19
64937;SHT30;51452;47.698;19.050;2022-08-06T15:08:11;31.32;43.25
64937;SHT30;51452;47.698;19.050;2022-08-06T15:10:37;31.34;43.37
64937;SHT30;51452;47.698;19.050;2022-08-06T15:13:03;31.34;43.84
64937;SHT30;51452;47.698;19.050;2022-08-06T15:15:32;31.42;43.89
64937;SHT30;51452;47.698;19.050;2022-08-06T15:17:58;31.51;45.03
64937;SHT30;51452;47.698;19.050;2022-08-06T15:20:23;31.50;43.20
64937;SHT30;51452;47.698;19.050;2022-08-06T15:22:49;31.32;43.12
64937;SHT30;51452;47.698;19.050;2022-08-06T15:25:14;31.39;43.99
64937;SHT30;51452;47.698;19.050;2022-08-06T15:27:46;31.26;43.62
64937;SHT30;51452;47.698;19.050;2022-08-06T15:30:12;31.39;43.39
64937;SHT30;51452;47.698;19.050;2022-08-06T15:32:38;31.25;44.21
64937;SHT30;51452;47.698;19.050;2022-08-06T15:35:04;31.25;43.65
64937;SHT30;51452;47.698;19.050;2022-08-06T15:37:30;31.27;43.96
64937;SHT30;51452;47.698;19.050;2022-08-06T15:39:55;31.27;43.89
64937;SHT30;51452;47.698;19.050;2022-08-06T15:42:22;31.34;44.61
64937;SHT30;51452;47.698;19.050;2022-08-06T15:44:48;31.15;43.84
64937;SHT30;51452;47.698;19.050;2022-08-06T15:47:13;31.19;43.95
64937;SHT30;51452;47.698;19.050;2022-08-06T15:49:39;30.92;45.06
64937;SHT30;51452;47.698;19.050;2022-08-06T15:52:04;31.05;44.74
64937;SHT30;51452;47.698;19.050;2022-08-06T15:54:30;31.09;45.41
64937;SHT30;51452;47.698;19.050;2022-08-06T15:56:55;30.81;44.23
64937;SHT30;51452;47.698;19.050;2022-08-06T15:59:20;30.95;44.70
64937;SHT30;51452;47.698;19.050;2022-08-06T16:01:47;30.99;44.46
64937;SHT30;51452;47.698;19.050;2022-08-06T16:04:12;30.82;44.43
64937;SHT30;51452;47.698;19.050;2022-08-06T16:06:37;30.78;44.52
64937;SHT30;51452;47.698;19.050;2022-08-06T16:09:03;30.69;45.42
64937;SHT30;51452;47.698;19.050;2022-08-06T16:11:28;30.60;45.47
64937;SHT30;51452;47.698;19.050;2022-08-06T16:13:54;30.51;45.15
64937;SHT30;51452;47.698;19.050;2022-08-06T16:16:19;30.64;44.93
64937;SHT30;51452;47.698;19.050;2022-08-06T16:18:44;30.65;45.30
64937;SHT30;51452;47.698;19.050;2022-08-06T16:21:10;30.61;44.96
64937;SHT30;51452;47.698;19.050;2022-08-06T16:23:35;30.67;45.70
64937;SHT30;51452;47.698;19.050;2022-08-06T16:26:01;30.58;45.32
64937;SHT30;51452;47.698;19.050;2022-08-06T16:28:26;30.51;45.03
64937;SHT30;51452;47.698;19.050;2022-08-06T16:30:51;30.45;45.66
64937;SHT30;51452;47.698;19.050;2022-08-06T16:33:17;30.35;45.50
64937;SHT30;51452;47.698;19.050;2022-08-06T16:35:42;30.30;45.42
64937;SHT30;51452;47.698;19.050;2022-08-06T16:38:09;30.33;45.86
64937;SHT30;51452;47.698;19.050;2022-08-06T16:40:35;30.23;45.36
64937;SHT30;51452;47.698;19.050;2022-08-06T16:43:00;29.94;46.06
64937;SHT30;51452;47.698;19.050;2022-08-06T16:45:26;29.94;46.41
64937;SHT30;51452;47.698;19.050;2022-08-06T16:47:53;29.83;46.47